sensor_id;sensor_type;location;lat;lon;timestamp;temperature;humidity
17954;DHT22;9102;53.548;9.926;2023-05-23T00:01:37;16.50;99.90
17954;DHT22;9102;53.548;9.926;2023-05-23T00:04:04;16.50;99.90
17954;DHT22;9102;53.548;9.926;2023-05-23T00:06:31;16.50;99.90
17954;DHT22;9102;53.548;9.926;2023-05-23T00:08:58;16.50;99.90
17954;DHT22;9102;53.548;9.926;2023-05-23T00:11:25;16.40;99.90
17954;DHT22;9102;53.548;9.926;2023-05-23T00:13:53;16.50;99.90
17954;DHT22;9102;53.548;9.926;2023-05-23T00:16:20;16.60;99.90
17954;DHT22;9102;53.548;9.926;2023-05-23T00:18:48;16.50;99.90
17954;DHT22;9102;53.548;9.926;2023-05-23T00:21:16;16.60;99.90
17954;DHT22;9102;53.548;9.926;2023-05-23T00:23:43;16.50;99.90
17954;DHT22;9102;53.548;9.926;2023-05-23T00:26:09;16.60;99.90
17954;DHT22;9102;53.548;9.926;2023-05-23T00:28:37;16.60;99.90
17954;DHT22;9102;53.548;9.926;2023-05-23T00:31:04;16.50;99.90
17954;DHT22;9102;53.548;9.926;2023-05-23T00:33:30;16.50;99.90
17954;DHT22;9102;53.548;9.926;2023-05-23T00:36:00;16.50;99.90
17954;DHT22;9102;53.548;9.926;2023-05-23T00:38:29;16.50;99.90
17954;DHT22;9102;53.548;9.926;2023-05-23T00:40:56;16.50;99.90
17954;DHT22;9102;53.548;9.926;2023-05-23T00:43:22;16.40;99.90
17954;DHT22;9102;53.548;9.926;2023-05-23T00:45:50;16.40;99.90
17954;DHT22;9102;53.548;9.926;2023-05-23T00:48:17;16.50;99.90
17954;DHT22;9102;53.548;9.926;2023-05-23T00:50:44;16.50;99.90
17954;DHT22;9102;53.548;9.926;2023-05-23T00:53:12;16.40;99.90
17954;DHT22;9102;53.548;9.926;2023-05-23T00:55:39;16.50;99.90
17954;DHT22;9102;53.548;9.926;2023-05-23T00:58:06;16.50;99.90
17954;DHT22;9102;53.548;9.926;2023-05-23T01:00:33;16.50;99.90
17954;DHT22;9102;53.548;9.926;2023-05-23T01:03:00;16.50;99.90
17954;DHT22;9102;53.548;9.926;2023-05-23T01:05:27;16.40;99.90
17954;DHT22;9102;53.548;9.926;2023-05-23T01:07:54;16.40;99.90
17954;DHT22;9102;53.548;9.926;2023-05-23T01:10:25;16.40;99.90
17954;DHT22;9102;53.548;9.926;2023-05-23T01:13:01;16.40;99.90
17954;DHT22;9102;53.548;9.926;2023-05-23T01:15:35;16.40;99.90
17954;DHT22;9102;53.548;9.926;2023-05-23T01:18:06;16.40;99.90
17954;DHT22;9102;53.548;9.926;2023-05-23T01:20:39;16.50;99.90
17954;DHT22;9102;53.548;9.926;2023-05-23T01:23:14;16.50;99.90
17954;DHT22;9102;53.548;9.926;2023-05-23T01:26:02;16.60;99.90
17954;DHT22;9102;53.548;9.926;2023-05-23T01:28:35;16.60;99.90
17954;DHT22;9102;53.548;9.926;2023-05-23T01:31:03;16.50;99.90
17954;DHT22;9102;53.548;9.926;2023-05-23T01:33:31;16.50;99.90
17954;DHT22;9102;53.548;9.926;2023-05-23T01:36:01;16.60;99.90
17954;DHT22;9102;53.548;9.926;2023-05-23T01:38:27;16.50;99.90
17954;DHT22;9102;53.548;9.926;2023-05-23T01:40:54;16.60;99.90
17954;DHT22;9102;53.548;9.926;2023-05-23T01:43:22;16.40;99.90
17954;DHT22;9102;53.548;9.926;2023-05-23T01:45:51;16.40;99.90
17954;DHT22;9102;53.548;9.926;2023-05-23T01:48:20;16.20;99.90
17954;DHT22;9102;53.548;9.926;2023-05-23T01:50:47;16.20;99.90
17954;DHT22;9102;53.548;9.926;2023-05-23T01:53:15;16.00;99.90
17954;DHT22;9102;53.548;9.926;2023-05-23T01:55:43;15.90;99.90
17954;DHT22;9102;53.548;9.926;2023-05-23T01:58:11;16.00;99.90
17954;DHT22;9102;53.548;9.926;2023-05-23T02:00:38;15.90;99.90
17954;DHT22;9102;53.548;9.926;2023-05-23T02:03:06;16.00;99.90
17954;DHT22;9102;53.548;9.926;2023-05-23T02:05:33;15.80;99.90
17954;DHT22;9102;53.548;9.926;2023-05-23T02:08:00;15.80;99.90
17954;DHT22;9102;53.548;9.926;2023-05-23T02:10:26;15.70;99.90
17954;DHT22;9102;53.548;9.926;2023-05-23T02:12:53;15.60;99.90
17954;DHT22;9102;53.548;9.926;2023-05-23T02:15:20;15.50;99.90
17954;DHT22;9102;53.548;9.926;2023-05-23T02:17:47;15.50;99.90
17954;DHT22;9102;53.548;9.926;2023-05-23T02:20:15;15.50;99.90
17954;DHT22;9102;53.548;9.926;2023-05-23T02:22:43;15.50;99.90
17954;DHT22;9102;53.548;9.926;2023-05-23T02:25:10;15.50;99.90
17954;DHT22;9102;53.548;9.926;2023-05-23T02:27:36;15.50;99.90
17954;DHT22;9102;53.548;9.926;2023-05-23T02:30:04;15.50;99.90
17954;DHT22;9102;53.548;9.926;2023-05-23T02:32:31;15.40;99.90
17954;DHT22;9102;53.548;9.926;2023-05-23T02:34:58;15.50;99.90
17954;DHT22;9102;53.548;9.926;2023-05-23T02:37:26;15.40;99.90
17954;DHT22;9102;53.548;9.926;2023-05-23T02:39:53;15.30;99.90
17954;DHT22;9102;53.548;9.926;2023-05-23T02:42:19;15.30;99.90
17954;DHT22;9102;53.548;9.926;2023-05-23T02:44:46;15.30;99.90
17954;DHT22;9102;53.548;9.926;2023-05-23T02:47:13;15.30;99.90
17954;DHT22;9102;53.548;9.926;2023-05-23T02:49:40;15.30;99.90
17954;DHT22;9102;53.548;9.926;2023-05-23T02:52:06;15.30;99.90
17954;DHT22;9102;53.548;9.926;2023-05-23T02:54:35;15.20;99.90
17954;DHT22;9102;53.548;9.926;2023-05-23T02:57:01;15.30;99.90
17954;DHT22;9102;53.548;9.926;2023-05-23T02:59:28;15.30;99.90
17954;DHT22;9102;53.548;9.926;2023-05-23T03:01:55;15.30;99.90
17954;DHT22;9102;53.548;9.926;2023-05-23T03:04:22;15.30;99.90
17954;DHT22;9102;53.548;9.926;2023-05-23T03:06:49;15.30;99.90
17954;DHT22;9102;53.548;9.926;2023-05-23T03:09:18;15.30;99.90
17954;DHT22;9102;53.548;9.926;2023-05-23T03:11:47;15.40;99.90
17954;DHT22;9102;53.548;9.926;2023-05-23T03:14:14;15.40;99.90
17954;DHT22;9102;53.548;9.926;2023-05-23T03:16:40;15.30;99.90
17954;DHT22;9102;53.548;9.926;2023-05-23T03:19:07;15.40;99.90
17954;DHT22;9102;53.548;9.926;2023-05-23T03:21:34;15.40;99.90
17954;DHT22;9102;53.548;9.926;2023-05-23T03:24:01;15.30;99.90
17954;DHT22;9102;53.548;9.926;2023-05-23T03:26:27;15.40;99.90
17954;DHT22;9102;53.548;9.926;2023-05-23T03:28:56;15.40;99.90
17954;DHT22;9102;53.548;9.926;2023-05-23T03:31:23;15.40;99.90
17954;DHT22;9102;53.548;9.926;2023-05-23T03:33:50;15.40;99.90
17954;DHT22;9102;53.548;9.926;2023-05-23T03:36:18;15.30;99.90
17954;DHT22;9102;53.548;9.926;2023-05-23T03:38:46;15.30;99.90
17954;DHT22;9102;53.548;9.926;2023-05-23T03:41:14;15.20;99.90
17954;DHT22;9102;53.548;9.926;2023-05-23T03:43:41;15.20;99.90
17954;DHT22;9102;53.548;9.926;2023-05-23T03:46:09;15.20;99.90
17954;DHT22;9102;53.548;9.926;2023-05-23T03:48:36;15.10;99.90
17954;DHT22;9102;53.548;9.926;2023-05-23T03:51:02;15.10;99.90
17954;DHT22;9102;53.548;9.926;2023-05-23T03:53:29;15.20;99.90
17954;DHT22;9102;53.548;9.926;2023-05-23T03:55:56;15.30;99.90
17954;DHT22;9102;53.548;9.926;2023-05-23T03:58:23;15.20;99.90
17954;DHT22;9102;53.548;9.926;2023-05-23T04:00:50;15.20;99.90
17954;DHT22;9102;53.548;9.926;2023-05-23T04:03:19;15.30;99.90
17954;DHT22;9102;53.548;9.926;2023-05-23T04:05:46;15.20;99.90
17954;DHT22;9102;53.548;9.926;2023-05-23T04:08:12;15.20;99.90
17954;DHT22;9102;53.548;9.926;2023-05-23T04:10:40;15.20;99.90
17954;DHT22;9102;53.548;9.926;2023-05-23T04:13:07;15.20;99.90
17954;DHT22;9102;53.548;9.926;2023-05-23T04:15:34;15.20;99.90
17954;DHT22;9102;53.548;9.926;2023-05-23T04:18:00;15.20;99.90
17954;DHT22;9102;53.548;9.926;2023-05-23T04:20:29;15.20;99.90
17954;DHT22;9102;53.548;9.926;2023-05-23T04:22:56;15.10;99.90
17954;DHT22;9102;53.548;9.926;2023-05-23T04:25:22;15.10;99.90
17954;DHT22;9102;53.548;9.926;2023-05-23T04:27:50;15.10;99.90
17954;DHT22;9102;53.548;9.926;2023-05-23T04:30:18;15.10;99.90
17954;DHT22;9102;53.548;9.926;2023-05-23T04:32:45;15.00;99.90
17954;DHT22;9102;53.548;9.926;2023-05-23T04:35:12;15.00;99.90
17954;DHT22;9102;53.548;9.926;2023-05-23T04:37:40;15.00;99.90
17954;DHT22;9102;53.548;9.926;2023-05-23T04:40:10;15.00;99.90
17954;DHT22;9102;53.548;9.926;2023-05-23T04:42:37;14.90;99.90
17954;DHT22;9102;53.548;9.926;2023-05-23T04:45:07;15.00;99.90
17954;DHT22;9102;53.548;9.926;2023-05-23T04:47:34;14.90;99.90
17954;DHT22;9102;53.548;9.926;2023-05-23T04:50:02;15.00;99.90
17954;DHT22;9102;53.548;9.926;2023-05-23T04:52:29;15.00;99.90
17954;DHT22;9102;53.548;9.926;2023-05-23T04:54:59;14.90;99.90
17954;DHT22;9102;53.548;9.926;2023-05-23T04:57:26;14.90;99.90
17954;DHT22;9102;53.548;9.926;2023-05-23T04:59:53;14.90;99.90
17954;DHT22;9102;53.548;9.926;2023-05-23T05:02:21;15.00;99.90
17954;DHT22;9102;53.548;9.926;2023-05-23T05:04:48;14.90;99.90
17954;DHT22;9102;53.548;9.926;2023-05-23T05:07:15;14.80;99.90
17954;DHT22;9102;53.548;9.926;2023-05-23T05:09:42;14.80;99.90
17954;DHT22;9102;53.548;9.926;2023-05-23T05:12:10;14.80;99.90
17954;DHT22;9102;53.548;9.926;2023-05-23T05:14:37;14.80;99.90
17954;DHT22;9102;53.548;9.926;2023-05-23T05:17:04;14.80;99.90
17954;DHT22;9102;53.548;9.926;2023-05-23T05:19:31;14.80;99.90
17954;DHT22;9102;53.548;9.926;2023-05-23T05:21:58;14.80;99.90
17954;DHT22;9102;53.548;9.926;2023-05-23T05:24:25;14.80;99.90
17954;DHT22;9102;53.548;9.926;2023-05-23T05:26:53;15.00;99.90
17954;DHT22;9102;53.548;9.926;2023-05-23T05:29:21;14.90;99.90
17954;DHT22;9102;53.548;9.926;2023-05-23T05:31:48;14.90;99.90
17954;DHT22;9102;53.548;9.926;2023-05-23T05:34:15;14.80;99.90
17954;DHT22;9102;53.548;9.926;2023-05-23T05:36:42;14.80;99.90
17954;DHT22;9102;53.548;9.926;2023-05-23T05:39:12;14.80;99.90
17954;DHT22;9102;53.548;9.926;2023-05-23T05:41:39;14.80;99.90
17954;DHT22;9102;53.548;9.926;2023-05-23T05:44:06;14.80;99.90
17954;DHT22;9102;53.548;9.926;2023-05-23T05:46:35;14.70;99.90
17954;DHT22;9102;53.548;9.926;2023-05-23T05:49:01;14.70;99.90
17954;DHT22;9102;53.548;9.926;2023-05-23T05:51:28;14.80;99.90
17954;DHT22;9102;53.548;9.926;2023-05-23T05:53:56;14.70;99.90
17954;DHT22;9102;53.548;9.926;2023-05-23T05:56:22;14.60;99.90
17954;DHT22;9102;53.548;9.926;2023-05-23T05:58:50;14.60;99.90
17954;DHT22;9102;53.548;9.926;2023-05-23T06:01:17;14.60;99.90
17954;DHT22;9102;53.548;9.926;2023-05-23T06:03:45;14.60;99.90
17954;DHT22;9102;53.548;9.926;2023-05-23T06:06:12;14.60;99.90
17954;DHT22;9102;53.548;9.926;2023-05-23T06:08:40;14.60;99.90
17954;DHT22;9102;53.548;9.926;2023-05-23T06:11:07;14.60;99.90
17954;DHT22;9102;53.548;9.926;2023-05-23T06:13:33;14.60;99.90
17954;DHT22;9102;53.548;9.926;2023-05-23T06:16:00;14.70;99.90
17954;DHT22;9102;53.548;9.926;2023-05-23T06:18:27;14.70;99.90
17954;DHT22;9102;53.548;9.926;2023-05-23T06:20:55;14.70;99.90
17954;DHT22;9102;53.548;9.926;2023-05-23T06:23:22;14.70;99.90
17954;DHT22;9102;53.548;9.926;2023-05-23T06:25:49;14.60;99.90
17954;DHT22;9102;53.548;9.926;2023-05-23T06:28:16;14.70;99.90
17954;DHT22;9102;53.548;9.926;2023-05-23T06:30:42;14.70;99.90
17954;DHT22;9102;53.548;9.926;2023-05-23T06:33:09;14.70;99.90
17954;DHT22;9102;53.548;9.926;2023-05-23T06:35:36;14.70;99.90
17954;DHT22;9102;53.548;9.926;2023-05-23T06:38:04;14.60;99.90
17954;DHT22;9102;53.548;9.926;2023-05-23T06:40:31;14.70;99.90
17954;DHT22;9102;53.548;9.926;2023-05-23T06:42:58;14.60;99.90
17954;DHT22;9102;53.548;9.926;2023-05-23T06:45:25;14.60;99.90
17954;DHT22;9102;53.548;9.926;2023-05-23T06:47:52;14.60;99.90
17954;DHT22;9102;53.548;9.926;2023-05-23T06:50:18;14.50;99.90
17954;DHT22;9102;53.548;9.926;2023-05-23T06:52:45;14.50;99.90
17954;DHT22;9102;53.548;9.926;2023-05-23T06:55:14;14.50;99.90
17954;DHT22;9102;53.548;9.926;2023-05-23T06:57:43;14.50;99.90
17954;DHT22;9102;53.548;9.926;2023-05-23T07:00:12;14.40;99.90
17954;DHT22;9102;53.548;9.926;2023-05-23T07:02:39;14.40;99.90
17954;DHT22;9102;53.548;9.926;2023-05-23T07:05:06;14.30;99.90
17954;DHT22;9102;53.548;9.926;2023-05-23T07:07:33;14.30;99.90
17954;DHT22;9102;53.548;9.926;2023-05-23T07:10:00;14.20;99.90
17954;DHT22;9102;53.548;9.926;2023-05-23T07:12:28;14.10;99.90
17954;DHT22;9102;53.548;9.926;2023-05-23T07:14:55;14.10;99.90
17954;DHT22;9102;53.548;9.926;2023-05-23T07:17:22;14.00;99.90
17954;DHT22;9102;53.548;9.926;2023-05-23T07:19:49;13.90;99.90
17954;DHT22;9102;53.548;9.926;2023-05-23T07:22:16;13.80;99.90
17954;DHT22;9102;53.548;9.926;2023-05-23T07:24:43;13.80;99.90
17954;DHT22;9102;53.548;9.926;2023-05-23T07:27:10;13.80;99.90
17954;DHT22;9102;53.548;9.926;2023-05-23T07:29:39;13.80;99.90
17954;DHT22;9102;53.548;9.926;2023-05-23T07:32:06;13.80;99.90
17954;DHT22;9102;53.548;9.926;2023-05-23T07:34:33;13.70;99.90
17954;DHT22;9102;53.548;9.926;2023-05-23T07:37:00;13.80;99.90
17954;DHT22;9102;53.548;9.926;2023-05-23T07:39:27;13.70;99.90
17954;DHT22;9102;53.548;9.926;2023-05-23T07:41:54;13.70;99.90
17954;DHT22;9102;53.548;9.926;2023-05-23T07:44:21;13.80;99.90
17954;DHT22;9102;53.548;9.926;2023-05-23T07:46:49;14.00;99.90
17954;DHT22;9102;53.548;9.926;2023-05-23T07:49:16;14.20;99.90
17954;DHT22;9102;53.548;9.926;2023-05-23T07:51:42;14.30;99.90
17954;DHT22;9102;53.548;9.926;2023-05-23T07:54:09;14.30;99.90
17954;DHT22;9102;53.548;9.926;2023-05-23T07:56:36;14.20;99.90
17954;DHT22;9102;53.548;9.926;2023-05-23T07:59:04;14.20;99.90
17954;DHT22;9102;53.548;9.926;2023-05-23T08:01:30;14.20;99.90
17954;DHT22;9102;53.548;9.926;2023-05-23T08:03:59;14.10;99.90
17954;DHT22;9102;53.548;9.926;2023-05-23T08:06:25;13.90;99.90
17954;DHT22;9102;53.548;9.926;2023-05-23T08:08:52;13.90;99.90
17954;DHT22;9102;53.548;9.926;2023-05-23T08:11:19;13.60;99.90
17954;DHT22;9102;53.548;9.926;2023-05-23T08:13:46;13.60;99.90
17954;DHT22;9102;53.548;9.926;2023-05-23T08:16:12;13.60;99.90
17954;DHT22;9102;53.548;9.926;2023-05-23T08:18:39;13.60;99.90
17954;DHT22;9102;53.548;9.926;2023-05-23T08:21:07;13.70;99.90
17954;DHT22;9102;53.548;9.926;2023-05-23T08:23:34;13.70;99.90
17954;DHT22;9102;53.548;9.926;2023-05-23T08:26:01;13.60;99.90
17954;DHT22;9102;53.548;9.926;2023-05-23T08:28:28;13.70;99.90
17954;DHT22;9102;53.548;9.926;2023-05-23T08:30:55;13.70;99.90
17954;DHT22;9102;53.548;9.926;2023-05-23T08:33:22;13.70;99.90
17954;DHT22;9102;53.548;9.926;2023-05-23T08:35:49;13.70;99.90
17954;DHT22;9102;53.548;9.926;2023-05-23T08:38:17;13.80;99.90
17954;DHT22;9102;53.548;9.926;2023-05-23T08:40:49;13.90;99.90
17954;DHT22;9102;53.548;9.926;2023-05-23T08:43:16;13.90;99.90
17954;DHT22;9102;53.548;9.926;2023-05-23T08:45:44;14.00;99.90
17954;DHT22;9102;53.548;9.926;2023-05-23T08:48:12;13.90;99.90
17954;DHT22;9102;53.548;9.926;2023-05-23T08:50:42;14.00;99.90
17954;DHT22;9102;53.548;9.926;2023-05-23T08:53:14;13.80;99.90
17954;DHT22;9102;53.548;9.926;2023-05-23T08:55:46;13.80;99.90
17954;DHT22;9102;53.548;9.926;2023-05-23T08:58:14;13.70;99.90
17954;DHT22;9102;53.548;9.926;2023-05-23T09:00:42;13.60;99.90
17954;DHT22;9102;53.548;9.926;2023-05-23T09:03:09;13.50;99.90
17954;DHT22;9102;53.548;9.926;2023-05-23T09:05:36;13.40;99.90
17954;DHT22;9102;53.548;9.926;2023-05-23T09:08:03;13.30;99.90
17954;DHT22;9102;53.548;9.926;2023-05-23T09:10:30;13.20;99.90
17954;DHT22;9102;53.548;9.926;2023-05-23T09:12:58;13.10;99.90
17954;DHT22;9102;53.548;9.926;2023-05-23T09:15:25;12.90;99.90
17954;DHT22;9102;53.548;9.926;2023-05-23T09:17:58;12.90;99.90
17954;DHT22;9102;53.548;9.926;2023-05-23T09:20:27;12.90;99.90
17954;DHT22;9102;53.548;9.926;2023-05-23T09:22:54;12.80;99.90
17954;DHT22;9102;53.548;9.926;2023-05-23T09:25:22;12.70;99.90
17954;DHT22;9102;53.548;9.926;2023-05-23T09:27:51;12.60;99.90
17954;DHT22;9102;53.548;9.926;2023-05-23T09:30:19;12.60;99.90
17954;DHT22;9102;53.548;9.926;2023-05-23T09:32:57;12.50;99.90
17954;DHT22;9102;53.548;9.926;2023-05-23T09:35:27;12.60;99.90
17954;DHT22;9102;53.548;9.926;2023-05-23T09:37:56;12.50;99.90
17954;DHT22;9102;53.548;9.926;2023-05-23T09:40:29;12.50;99.90
17954;DHT22;9102;53.548;9.926;2023-05-23T09:43:01;12.50;99.90
17954;DHT22;9102;53.548;9.926;2023-05-23T09:45:30;12.50;99.90
17954;DHT22;9102;53.548;9.926;2023-05-23T09:47:57;12.60;99.90
17954;DHT22;9102;53.548;9.926;2023-05-23T09:50:25;12.60;99.90
17954;DHT22;9102;53.548;9.926;2023-05-23T09:52:56;12.60;99.90
17954;DHT22;9102;53.548;9.926;2023-05-23T09:55:23;12.50;99.90
17954;DHT22;9102;53.548;9.926;2023-05-23T09:57:52;12.50;99.90
17954;DHT22;9102;53.548;9.926;2023-05-23T10:00:21;12.50;99.90
17954;DHT22;9102;53.548;9.926;2023-05-23T10:02:57;12.50;99.90
17954;DHT22;9102;53.548;9.926;2023-05-23T10:05:32;12.60;99.90
17954;DHT22;9102;53.548;9.926;2023-05-23T10:08:01;12.60;99.90
17954;DHT22;9102;53.548;9.926;2023-05-23T10:10:30;12.70;99.90
17954;DHT22;9102;53.548;9.926;2023-05-23T10:13:01;12.80;99.90
17954;DHT22;9102;53.548;9.926;2023-05-23T10:15:33;12.80;99.90
17954;DHT22;9102;53.548;9.926;2023-05-23T10:18:09;12.80;99.90
17954;DHT22;9102;53.548;9.926;2023-05-23T10:20:39;12.80;99.90
17954;DHT22;9102;53.548;9.926;2023-05-23T10:23:07;12.60;99.90
17954;DHT22;9102;53.548;9.926;2023-05-23T10:25:34;12.60;99.90
17954;DHT22;9102;53.548;9.926;2023-05-23T10:28:01;12.60;99.90
17954;DHT22;9102;53.548;9.926;2023-05-23T10:30:29;12.70;99.90
17954;DHT22;9102;53.548;9.926;2023-05-23T10:32:56;12.80;99.90
17954;DHT22;9102;53.548;9.926;2023-05-23T10:35:34;12.90;99.90
17954;DHT22;9102;53.548;9.926;2023-05-23T10:38:07;13.10;99.90
17954;DHT22;9102;53.548;9.926;2023-05-23T10:40:45;13.10;99.90
17954;DHT22;9102;53.548;9.926;2023-05-23T10:43:19;12.90;99.90
17954;DHT22;9102;53.548;9.926;2023-05-23T10:45:49;12.80;99.90
17954;DHT22;9102;53.548;9.926;2023-05-23T10:48:20;13.10;99.90
17954;DHT22;9102;53.548;9.926;2023-05-23T10:51:03;13.20;99.90
17954;DHT22;9102;53.548;9.926;2023-05-23T10:53:31;13.30;99.90
17954;DHT22;9102;53.548;9.926;2023-05-23T10:55:58;13.40;99.90
17954;DHT22;9102;53.548;9.926;2023-05-23T10:58:29;13.50;99.90
17954;DHT22;9102;53.548;9.926;2023-05-23T11:00:59;13.60;99.90
17954;DHT22;9102;53.548;9.926;2023-05-23T11:03:30;13.60;99.90
17954;DHT22;9102;53.548;9.926;2023-05-23T11:05:58;13.70;99.90
17954;DHT22;9102;53.548;9.926;2023-05-23T11:08:35;13.80;99.90
17954;DHT22;9102;53.548;9.926;2023-05-23T11:11:03;13.80;99.90
17954;DHT22;9102;53.548;9.926;2023-05-23T11:13:53;13.70;99.90
17954;DHT22;9102;53.548;9.926;2023-05-23T11:16:24;13.80;99.90
17954;DHT22;9102;53.548;9.926;2023-05-23T11:18:51;13.70;99.90
17954;DHT22;9102;53.548;9.926;2023-05-23T11:21:30;14.00;99.90
17954;DHT22;9102;53.548;9.926;2023-05-23T11:23:59;14.20;99.90
17954;DHT22;9102;53.548;9.926;2023-05-23T11:26:29;14.40;99.90
17954;DHT22;9102;53.548;9.926;2023-05-23T11:28:56;14.60;99.90
17954;DHT22;9102;53.548;9.926;2023-05-23T11:31:23;14.70;99.90
17954;DHT22;9102;53.548;9.926;2023-05-23T11:33:50;14.70;99.90
17954;DHT22;9102;53.548;9.926;2023-05-23T11:36:20;14.60;99.90
17954;DHT22;9102;53.548;9.926;2023-05-23T11:38:47;14.70;99.90
17954;DHT22;9102;53.548;9.926;2023-05-23T11:41:15;14.80;99.90
17954;DHT22;9102;53.548;9.926;2023-05-23T11:43:49;14.60;99.90
17954;DHT22;9102;53.548;9.926;2023-05-23T11:46:17;14.70;99.90
17954;DHT22;9102;53.548;9.926;2023-05-23T11:48:59;14.70;99.90
17954;DHT22;9102;53.548;9.926;2023-05-23T11:51:26;14.50;99.90
17954;DHT22;9102;53.548;9.926;2023-05-23T11:53:59;14.40;99.90
17954;DHT22;9102;53.548;9.926;2023-05-23T11:56:27;14.30;99.90
17954;DHT22;9102;53.548;9.926;2023-05-23T11:58:55;14.30;99.90
17954;DHT22;9102;53.548;9.926;2023-05-23T12:01:27;14.00;99.90
17954;DHT22;9102;53.548;9.926;2023-05-23T12:03:55;14.20;99.90
17954;DHT22;9102;53.548;9.926;2023-05-23T12:06:23;14.40;99.90
17954;DHT22;9102;53.548;9.926;2023-05-23T12:08:51;14.40;99.90
17954;DHT22;9102;53.548;9.926;2023-05-23T12:11:17;14.60;99.90
17954;DHT22;9102;53.548;9.926;2023-05-23T12:13:46;14.90;99.90
17954;DHT22;9102;53.548;9.926;2023-05-23T12:16:13;15.10;99.90
17954;DHT22;9102;53.548;9.926;2023-05-23T12:18:41;15.10;99.90
17954;DHT22;9102;53.548;9.926;2023-05-23T12:21:08;15.00;99.90
17954;DHT22;9102;53.548;9.926;2023-05-23T12:23:35;15.10;99.90
17954;DHT22;9102;53.548;9.926;2023-05-23T12:26:04;15.10;99.90
17954;DHT22;9102;53.548;9.926;2023-05-23T12:28:35;15.50;99.90
17954;DHT22;9102;53.548;9.926;2023-05-23T12:31:10;15.60;99.90
17954;DHT22;9102;53.548;9.926;2023-05-23T12:33:37;15.90;99.90
17954;DHT22;9102;53.548;9.926;2023-05-23T12:36:05;16.00;99.90
17954;DHT22;9102;53.548;9.926;2023-05-23T12:38:33;16.10;99.90
17954;DHT22;9102;53.548;9.926;2023-05-23T12:41:09;16.10;99.90
17954;DHT22;9102;53.548;9.926;2023-05-23T12:43:37;15.70;99.90
17954;DHT22;9102;53.548;9.926;2023-05-23T12:46:04;15.70;99.90
17954;DHT22;9102;53.548;9.926;2023-05-23T12:48:33;15.80;99.90
17954;DHT22;9102;53.548;9.926;2023-05-23T12:51:02;15.90;99.90
17954;DHT22;9102;53.548;9.926;2023-05-23T12:53:29;15.80;99.90
17954;DHT22;9102;53.548;9.926;2023-05-23T12:55:55;15.70;99.90
17954;DHT22;9102;53.548;9.926;2023-05-23T12:58:22;15.50;99.90
17954;DHT22;9102;53.548;9.926;2023-05-23T13:00:49;15.60;99.90
17954;DHT22;9102;53.548;9.926;2023-05-23T13:03:17;15.70;99.90
17954;DHT22;9102;53.548;9.926;2023-05-23T13:05:45;15.80;99.90
17954;DHT22;9102;53.548;9.926;2023-05-23T13:08:12;15.80;99.90
17954;DHT22;9102;53.548;9.926;2023-05-23T13:10:39;15.70;99.90
17954;DHT22;9102;53.548;9.926;2023-05-23T13:13:06;15.50;99.90
17954;DHT22;9102;53.548;9.926;2023-05-23T13:15:32;15.00;99.90
17954;DHT22;9102;53.548;9.926;2023-05-23T13:17:59;15.20;99.90
17954;DHT22;9102;53.548;9.926;2023-05-23T13:20:27;15.30;99.90
17954;DHT22;9102;53.548;9.926;2023-05-23T13:22:56;15.10;99.90
17954;DHT22;9102;53.548;9.926;2023-05-23T13:25:23;14.70;99.90
17954;DHT22;9102;53.548;9.926;2023-05-23T13:27:50;14.80;99.90
17954;DHT22;9102;53.548;9.926;2023-05-23T13:30:18;14.90;99.90
17954;DHT22;9102;53.548;9.926;2023-05-23T13:32:45;14.80;99.90
17954;DHT22;9102;53.548;9.926;2023-05-23T13:35:12;14.80;99.90
17954;DHT22;9102;53.548;9.926;2023-05-23T13:37:39;15.00;99.90
17954;DHT22;9102;53.548;9.926;2023-05-23T13:40:11;15.10;99.90
17954;DHT22;9102;53.548;9.926;2023-05-23T13:42:38;15.30;99.90
17954;DHT22;9102;53.548;9.926;2023-05-23T13:45:07;15.20;99.90
17954;DHT22;9102;53.548;9.926;2023-05-23T13:47:33;15.40;99.90
17954;DHT22;9102;53.548;9.926;2023-05-23T13:50:01;15.40;99.90
17954;DHT22;9102;53.548;9.926;2023-05-23T13:52:28;15.40;99.90
17954;DHT22;9102;53.548;9.926;2023-05-23T13:54:55;15.40;99.90
17954;DHT22;9102;53.548;9.926;2023-05-23T13:57:23;15.30;99.90
17954;DHT22;9102;53.548;9.926;2023-05-23T13:59:50;15.30;99.90
17954;DHT22;9102;53.548;9.926;2023-05-23T14:02:17;15.40;99.90
17954;DHT22;9102;53.548;9.926;2023-05-23T14:04:44;15.50;99.90
17954;DHT22;9102;53.548;9.926;2023-05-23T14:07:11;15.50;99.90
17954;DHT22;9102;53.548;9.926;2023-05-23T14:09:37;15.50;99.90
17954;DHT22;9102;53.548;9.926;2023-05-23T14:12:05;15.30;99.90
17954;DHT22;9102;53.548;9.926;2023-05-23T14:14:33;15.20;99.90
17954;DHT22;9102;53.548;9.926;2023-05-23T14:17:00;15.10;99.90
17954;DHT22;9102;53.548;9.926;2023-05-23T14:19:27;15.20;99.90
17954;DHT22;9102;53.548;9.926;2023-05-23T14:21:54;15.10;99.90
17954;DHT22;9102;53.548;9.926;2023-05-23T14:24:21;15.00;99.90
17954;DHT22;9102;53.548;9.926;2023-05-23T14:26:48;14.70;99.90
17954;DHT22;9102;53.548;9.926;2023-05-23T14:29:15;14.90;99.90
17954;DHT22;9102;53.548;9.926;2023-05-23T14:31:43;14.90;99.90
17954;DHT22;9102;53.548;9.926;2023-05-23T14:34:10;14.70;99.90
17954;DHT22;9102;53.548;9.926;2023-05-23T14:36:37;14.70;99.90
17954;DHT22;9102;53.548;9.926;2023-05-23T14:39:04;14.60;99.90
17954;DHT22;9102;53.548;9.926;2023-05-23T14:41:32;14.70;99.90
17954;DHT22;9102;53.548;9.926;2023-05-23T14:43:59;14.70;99.90
17954;DHT22;9102;53.548;9.926;2023-05-23T14:46:26;14.60;99.90
17954;DHT22;9102;53.548;9.926;2023-05-23T14:48:54;14.60;99.90
17954;DHT22;9102;53.548;9.926;2023-05-23T14:51:21;14.60;99.90
17954;DHT22;9102;53.548;9.926;2023-05-23T14:53:48;14.50;99.90
17954;DHT22;9102;53.548;9.926;2023-05-23T14:56:15;14.50;99.90
17954;DHT22;9102;53.548;9.926;2023-05-23T14:58:41;14.50;99.90
17954;DHT22;9102;53.548;9.926;2023-05-23T15:01:10;14.70;99.90
17954;DHT22;9102;53.548;9.926;2023-05-23T15:03:37;14.80;99.90
17954;DHT22;9102;53.548;9.926;2023-05-23T15:06:05;14.90;99.90
17954;DHT22;9102;53.548;9.926;2023-05-23T15:08:33;14.90;99.90
17954;DHT22;9102;53.548;9.926;2023-05-23T15:10:59;14.50;99.90
17954;DHT22;9102;53.548;9.926;2023-05-23T15:13:26;14.70;99.90
17954;DHT22;9102;53.548;9.926;2023-05-23T15:15:53;14.70;99.90
17954;DHT22;9102;53.548;9.926;2023-05-23T15:18:21;14.50;99.90
17954;DHT22;9102;53.548;9.926;2023-05-23T15:20:47;14.50;99.90
17954;DHT22;9102;53.548;9.926;2023-05-23T15:23:16;14.50;99.90
17954;DHT22;9102;53.548;9.926;2023-05-23T15:25:43;14.70;99.90
17954;DHT22;9102;53.548;9.926;2023-05-23T15:28:10;14.70;99.90
17954;DHT22;9102;53.548;9.926;2023-05-23T15:30:37;14.40;99.90
17954;DHT22;9102;53.548;9.926;2023-05-23T15:33:04;14.50;99.90
17954;DHT22;9102;53.548;9.926;2023-05-23T15:35:31;14.60;99.90
17954;DHT22;9102;53.548;9.926;2023-05-23T15:37:59;14.70;99.90
17954;DHT22;9102;53.548;9.926;2023-05-23T15:40:27;14.80;99.90
17954;DHT22;9102;53.548;9.926;2023-05-23T15:42:54;14.70;99.90
17954;DHT22;9102;53.548;9.926;2023-05-23T15:45:21;14.50;99.90
17954;DHT22;9102;53.548;9.926;2023-05-23T15:47:48;14.50;99.90
17954;DHT22;9102;53.548;9.926;2023-05-23T15:50:15;14.40;99.90